Time;durP1;ratioP1;P1;durP2;ratioP2;P2;SDS_P1;SDS_P2;PMS_P1;PMS_P2;Temp;Humidity;BMP_temperature;BMP_pressure;BME280_temperature;BME280_humidity;BME280_pressure;Samples;Min_cycle;Max_cycle;Signal;HPM_P1;HPM_P2
2022/06/12 00:02:33;;;;;;;12.32;2.63;;;;;;;17.98;95.06;101252.13;8285958;28;20172;-63
2022/06/12 00:06:34;;;;;;;10.68;2.55;;;;;;;18.00;96.94;101254.69;8289914;28;20376;-63
2022/06/12 00:10:37;;;;;;;10.30;2.60;;;;;;;18.20;95.23;101243.22;8289557;28;20625;-63
2022/06/12 00:14:37;;;;;;;7.97;2.60;;;;;;;17.83;97.95;101248.34;8289627;28;20656;-63
2022/06/12 00:18:38;;;;;;;6.53;2.78;;;;;;;17.94;96.54;101249.91;8290481;28;20568;-63
2022/06/12 00:22:39;;;;;;;12.32;3.05;;;;;;;17.84;97.81;101250.06;8288218;28;20038;-63
2022/06/12 00:26:44;;;;;;;9.73;3.05;;;;;;;17.76;97.82;101252.81;8291050;28;20046;-63
2022/06/12 00:30:45;;;;;;;12.10;3.22;;;;;;;17.68;97.37;101247.31;8290480;28;20129;-63
2022/06/12 00:34:49;;;;;;;16.65;4.30;;;;;;;17.90;95.49;101254.84;8288585;28;20446;-63
2022/06/12 00:38:49;;;;;;;12.82;3.88;;;;;;;17.78;98.61;101256.19;8288589;28;20049;-63
2022/06/12 00:42:53;;;;;;;13.50;4.32;;;;;;;17.79;96.80;101257.06;8290439;28;20037;-63
2022/06/12 00:46:57;;;;;;;11.20;2.55;;;;;;;17.77;96.63;101254.50;8290748;28;20621;-63
2022/06/12 00:55:24;;;;;;;16.95;3.45;;;;;;;17.71;96.41;101260.66;8395258;27;20408;-62
2022/06/12 00:59:44;;;;;;;14.70;3.50;;;;;;;17.41;97.88;101263.94;8380389;28;20456;-62
2022/06/12 01:08:08;;;;;;;11.95;4.03;;;;;;;17.24;99.90;101256.72;8381830;28;20116;-63
2022/06/12 01:12:16;;;;;;;15.48;4.38;;;;;;;17.10;100.00;101260.09;8384171;28;20143;-63
2022/06/12 01:16:19;;;;;;;17.75;4.15;;;;;;;17.08;100.00;101262.16;8384204;28;20044;-63
2022/06/12 01:20:25;;;;;;;15.15;4.40;;;;;;;16.92;100.00;101270.25;8384378;28;20048;-63
2022/06/12 01:24:58;;;;;;;18.23;4.60;;;;;;;16.71;100.00;101265.19;8383762;28;20037;-63
2022/06/12 01:29:08;;;;;;;11.60;3.90;;;;;;;16.30;100.00;101262.31;8377498;28;20036;-63
2022/06/12 01:33:18;;;;;;;20.65;4.45;;;;;;;16.26;100.00;101264.53;8384643;28;20044;-63
2022/06/12 01:47:06;;;;;;;14.65;4.22;;;;;;;16.20;100.00;101250.66;8403695;28;20137;-62
2022/06/12 01:51:22;;;;;;;13.70;3.90;;;;;;;16.17;100.00;101242.78;8390751;28;20037;-62
2022/06/12 01:55:42;;;;;;;12.85;3.70;;;;;;;16.17;100.00;101248.22;8395015;28;20048;-62
2022/06/12 01:59:57;;;;;;;10.75;4.28;;;;;;;16.09;100.00;101243.56;8375734;28;20551;-62
2022/06/12 02:04:20;;;;;;;16.30;4.90;;;;;;;16.07;100.00;101242.03;8374489;28;20032;-62
2022/06/12 02:08:28;;;;;;;15.65;5.57;;;;;;;16.17;100.00;101242.78;8402370;28;20043;-62
2022/06/12 02:13:31;;;;;;;16.27;6.13;;;;;;;15.90;100.00;101251.06;8378780;28;20040;-62
2022/06/12 02:16:55;;;;;;;17.73;5.65;;;;;;;15.79;100.00;101243.13;8384209;28;20037;-62
2022/06/12 02:21:07;;;;;;;13.35;5.60;;;;;;;15.71;100.00;101247.47;8364216;28;20117;-62
2022/06/12 02:25:13;;;;;;;19.08;5.70;;;;;;;15.67;100.00;101251.53;8367357;28;20068;-62
2022/06/12 02:29:20;;;;;;;14.15;5.50;;;;;;;15.62;100.00;101248.41;8369252;28;20064;-62
2022/06/12 02:33:26;;;;;;;13.50;5.10;;;;;;;15.30;100.00;101247.19;8341491;28;20043;-62
2022/06/12 02:37:34;;;;;;;10.18;4.80;;;;;;;15.00;100.00;101245.63;8341352;28;20044;-62
2022/06/12 02:41:39;;;;;;;20.05;5.50;;;;;;;15.23;100.00;101246.94;8326732;28;20044;-62
2022/06/12 02:45:47;;;;;;;13.00;4.40;;;;;;;14.74;100.00;101244.63;8338874;28;20048;-62
2022/06/12 02:49:50;;;;;;;13.63;5.30;;;;;;;14.58;100.00;101244.38;8352036;28;20525;-62
2022/06/12 02:54:24;;;;;;;19.05;6.10;;;;;;;15.22;100.00;101256.13;8329418;28;20057;-63
2022/06/12 02:58:45;;;;;;;13.07;5.32;;;;;;;15.19;100.00;101256.41;8316931;28;20041;-63
2022/06/12 03:02:57;;;;;;;15.95;5.82;;;;;;;14.87;100.00;101247.84;8334648;28;20635;-63
2022/06/12 03:06:57;;;;;;;23.52;6.07;;;;;;;14.83;100.00;101243.72;8326243;28;20446;-63
2022/06/12 03:11:06;;;;;;;28.75;6.32;;;;;;;14.94;100.00;101246.25;8327813;28;20038;-63
2022/06/12 03:15:11;;;;;;;18.35;6.38;;;;;;;15.10;100.00;101251.88;8324887;28;20053;-63
2022/06/12 03:19:17;;;;;;;19.90;6.38;;;;;;;15.03;100.00;101250.78;8334799;28;20453;-63
2022/06/12 03:23:46;;;;;;;15.63;6.22;;;;;;;14.89;100.00;101242.25;8334352;28;20340;-63
2022/06/12 03:27:56;;;;;;;18.35;6.28;;;;;;;15.01;100.00;101252.78;8326917;28;20526;-63
2022/06/12 03:32:13;;;;;;;17.60;6.45;;;;;;;14.86;100.00;101254.31;8306686;28;20029;-63
2022/06/12 03:36:38;;;;;;;19.13;5.65;;;;;;;14.80;100.00;101252.19;8310315;28;20041;-63
2022/06/12 03:40:56;;;;;;;19.90;6.22;;;;;;;14.85;100.00;101252.59;8335544;28;20160;-63
2022/06/12 03:45:05;;;;;;;17.38;5.35;;;;;;;14.69;100.00;101263.25;8343276;28;20494;-63
2022/06/12 03:53:38;;;;;;;15.32;6.53;;;;;;;14.89;100.00;101270.34;8303041;27;20378;-62
2022/06/12 03:57:52;;;;;;;20.27;6.53;;;;;;;15.12;100.00;101266.22;8293622;28;20031;-62
2022/06/12 04:01:53;;;;;;;12.35;5.82;;;;;;;15.45;100.00;101275.66;8295112;28;20073;-62
2022/06/12 04:05:58;;;;;;;17.77;5.57;;;;;;;15.40;100.00;101281.56;8292579;28;20560;-62
2022/06/12 04:10:02;;;;;;;22.60;5.55;;;;;;;15.26;100.00;101290.25;8279653;28;20042;-62
2022/06/12 04:14:06;;;;;;;18.27;5.70;;;;;;;14.99;100.00;101287.50;8326762;28;20041;-62
2022/06/12 04:18:07;;;;;;;22.55;6.00;;;;;;;15.36;100.00;101282.84;8339315;28;20279;-62
2022/06/12 04:22:13;;;;;;;15.20;5.55;;;;;;;15.39;100.00;101279.00;8342470;28;20034;-62
2022/06/12 04:26:30;;;;;;;13.32;4.63;;;;;;;15.82;100.00;101281.00;8346761;28;20152;-63
2022/06/12 04:30:35;;;;;;;15.45;4.95;;;;;;;16.10;100.00;101282.63;8322747;28;20033;-62
2022/06/12 04:34:39;;;;;;;18.05;4.50;;;;;;;16.36;99.87;101275.31;8345699;28;20033;-62
2022/06/12 04:38:40;;;;;;;14.98;4.45;;;;;;;16.58;99.91;101272.09;8349901;28;20613;-62
2022/06/12 04:42:40;;;;;;;8.35;3.70;;;;;;;16.58;100.00;101280.28;8341422;28;20108;-62
2022/06/12 04:46:44;;;;;;;13.10;3.90;;;;;;;16.71;100.00;101278.00;8339416;28;20529;-62
2022/06/12 04:50:45;;;;;;;11.43;3.93;;;;;;;17.32;96.93;101274.00;8339899;28;20456;-62
2022/06/12 04:54:46;;;;;;;15.07;3.58;;;;;;;17.45;94.77;101287.25;8328767;28;20543;-62
2022/06/12 04:58:47;;;;;;;9.82;3.17;;;;;;;17.60;93.39;101291.06;8317543;28;20037;-62
2022/06/12 05:02:48;;;;;;;11.35;3.67;;;;;;;17.70;93.16;101280.81;8311706;28;20049;-63
2022/06/12 05:06:50;;;;;;;13.07;3.73;;;;;;;17.81;93.08;101280.47;8309458;28;20499;-63
2022/06/12 05:10:50;;;;;;;11.05;3.35;;;;;;;17.95;90.60;101277.09;8309724;28;20285;-63
2022/06/12 05:14:50;;;;;;;7.57;3.65;;;;;;;18.01;89.53;101273.69;8305466;28;20042;-63
2022/06/12 05:18:51;;;;;;;9.98;3.50;;;;;;;18.19;88.41;101277.13;8300666;28;20042;-63
2022/06/12 05:22:51;;;;;;;9.68;3.35;;;;;;;18.33;87.73;101278.31;8319735;28;20038;-63
2022/06/12 05:26:53;;;;;;;11.63;2.95;;;;;;;18.36;85.81;101284.28;8324638;28;20042;-63
2022/06/12 05:30:53;;;;;;;11.95;3.22;;;;;;;18.55;84.85;101283.97;8300948;28;20038;-63
2022/06/12 05:34:54;;;;;;;10.55;2.80;;;;;;;18.70;83.54;101282.22;8302361;28;20045;-63
2022/06/12 05:38:54;;;;;;;7.85;2.40;;;;;;;18.90;80.29;101278.06;8296101;28;20045;-63
2022/06/12 05:42:55;;;;;;;11.30;2.50;;;;;;;19.00;78.39;101277.88;8294669;28;20030;-63
2022/06/12 05:46:57;;;;;;;9.57;2.55;;;;;;;19.00;79.61;101278.72;8310142;28;20410;-63
2022/06/12 05:51:00;;;;;;;12.73;2.47;;;;;;;19.16;78.26;101284.13;8308913;28;20124;-63
2022/06/12 05:55:00;;;;;;;8.52;2.33;;;;;;;19.50;77.29;101278.38;8320846;28;20048;-63
2022/06/12 05:59:01;;;;;;;6.07;2.25;;;;;;;19.60;74.23;101289.13;8312708;28;20048;-63
2022/06/12 06:03:02;;;;;;;5.93;1.95;;;;;;;19.69;73.23;101282.53;8324673;28;20029;-63
2022/06/12 06:07:02;;;;;;;6.55;1.80;;;;;;;19.82;72.99;101285.56;8325366;28;20034;-63
2022/06/12 06:11:03;;;;;;;7.00;1.88;;;;;;;19.96;71.80;101287.50;8314699;28;20351;-63
2022/06/12 06:15:04;;;;;;;8.25;1.80;;;;;;;20.01;71.46;101279.59;8315615;28;20061;-63
2022/06/12 06:19:04;;;;;;;8.90;2.33;;;;;;;20.26;68.30;101279.25;8323763;28;20396;-63
2022/06/12 06:23:07;;;;;;;7.80;2.08;;;;;;;20.29;67.87;101294.50;8319494;28;20128;-63
2022/06/12 06:27:07;;;;;;;7.70;1.42;;;;;;;20.63;67.22;101297.63;8321479;28;20033;-63
2022/06/12 06:31:09;;;;;;;5.80;1.80;;;;;;;20.76;67.03;101297.81;8303395;28;20037;-63
2022/06/12 06:35:11;;;;;;;6.38;1.70;;;;;;;20.80;64.10;101293.69;8299757;28;20041;-63
2022/06/12 06:39:11;;;;;;;10.02;1.48;;;;;;;20.65;66.75;101295.53;8292515;28;20061;-63
2022/06/12 06:43:13;;;;;;;6.73;1.50;;;;;;;20.86;67.15;101298.44;8299984;28;20041;-63
2022/06/12 06:47:13;;;;;;;12.93;1.50;;;;;;;21.04;66.85;101302.53;8310556;28;20281;-63
2022/06/12 06:51:13;;;;;;;6.30;1.40;;;;;;;21.09;66.86;101304.72;8314820;28;20183;-63
2022/06/12 06:55:14;;;;;;;9.63;1.73;;;;;;;21.17;68.28;101301.88;8314086;28;20292;-63
2022/06/12 06:59:15;;;;;;;11.23;1.70;;;;;;;21.18;67.83;101304.44;8313574;28;20311;-63
2022/06/12 07:03:16;;;;;;;10.40;1.65;;;;;;;21.78;63.47;101301.44;8316224;28;20060;-63
2022/06/12 07:07:17;;;;;;;12.93;1.80;;;;;;;21.79;64.02;101300.38;8312253;28;20037;-63
2022/06/12 07:11:18;;;;;;;12.85;1.30;;;;;;;22.18;62.22;101295.31;8316488;28;20080;-63
2022/06/12 07:15:20;;;;;;;5.55;1.23;;;;;;;21.74;61.65;101304.78;8315528;28;20814;-63
2022/06/12 07:19:20;;;;;;;6.47;1.33;;;;;;;22.02;62.51;101302.97;8318680;28;20037;-63
2022/06/12 07:23:23;;;;;;;7.05;1.38;;;;;;;21.50;61.04;101303.16;8316476;28;20052;-63
2022/06/12 07:27:23;;;;;;;8.35;1.38;;;;;;;21.66;60.58;101296.59;8296295;28;20080;-63
2022/06/12 07:31:24;;;;;;;7.17;1.00;;;;;;;22.17;63.13;101301.84;8293736;28;20042;-63
2022/06/12 07:35:24;;;;;;;4.35;1.42;;;;;;;22.12;60.88;101303.50;8301632;28;20360;-63
2022/06/12 07:39:28;;;;;;;6.72;1.10;;;;;;;22.49;61.61;101295.81;8299783;28;20525;-63
2022/06/12 07:43:33;;;;;;;3.70;1.20;;;;;;;22.60;60.79;101292.53;8261326;28;20384;-63
2022/06/12 07:47:34;;;;;;;6.57;1.50;;;;;;;22.60;61.07;101300.81;8309046;28;20076;-63
2022/06/12 07:51:34;;;;;;;6.18;1.23;;;;;;;22.38;60.14;101304.63;8313504;28;20124;-63
2022/06/12 07:55:35;;;;;;;5.25;1.20;;;;;;;21.99;58.57;101306.97;8306920;28;20041;-63
2022/06/12 07:59:35;;;;;;;3.85;1.20;;;;;;;22.20;60.42;101295.13;8292552;28;20116;-63
2022/06/12 08:03:37;;;;;;;8.88;1.30;;;;;;;22.48;60.30;101291.34;8305673;28;20029;-63
2022/06/12 08:07:37;;;;;;;7.00;1.30;;;;;;;22.46;58.92;101300.88;8302437;28;20588;-63
2022/06/12 08:11:40;;;;;;;10.18;1.52;;;;;;;23.34;61.89;101301.13;8297534;28;20470;-63
2022/06/12 08:15:45;;;;;;;5.40;1.08;;;;;;;23.31;58.06;101307.06;8296955;28;20164;-63
2022/06/12 08:20:46;;;;;;;7.72;1.35;;;;;;;23.49;59.02;101299.09;8298385;28;20362;-63
2022/06/12 08:24:09;;;;;;;4.07;0.82;;;;;;;23.31;58.61;101307.94;8302340;28;20083;-63
2022/06/12 08:28:09;;;;;;;7.37;1.30;;;;;;;23.44;59.73;101313.50;8282432;28;20038;-63
2022/06/12 08:32:17;;;;;;;9.67;1.43;;;;;;;23.32;56.61;101308.78;8300266;28;20124;-63
2022/06/12 08:36:19;;;;;;;11.43;1.05;;;;;;;23.40;55.81;101303.09;8305039;28;20326;-63
2022/06/12 08:40:30;;;;;;;10.98;1.40;;;;;;;22.92;54.81;101294.72;8307025;28;20033;-63
2022/06/12 08:45:02;;;;;;;6.30;1.02;;;;;;;23.15;55.16;101287.00;8315117;28;20038;-63
2022/06/12 08:49:18;;;;;;;3.22;0.68;;;;;;;23.79;52.43;101295.84;8303317;28;20026;-63
2022/06/12 08:53:47;;;;;;;4.72;0.88;;;;;;;24.00;52.31;101292.09;8319151;28;20048;-63
2022/06/12 09:02:37;;;;;;;3.42;0.65;;;;;;;24.30;51.88;101287.88;8300545;28;21005;-62
2022/06/12 09:06:46;;;;;;;5.97;0.60;;;;;;;24.42;51.19;101281.50;8275844;28;20188;-62
2022/06/12 09:10:56;;;;;;;2.25;0.40;;;;;;;24.46;48.94;101276.44;8276173;28;20107;-62
2022/06/12 09:15:19;;;;;;;2.60;0.68;;;;;;;24.35;49.90;101268.75;8272332;28;20048;-62
2022/06/12 09:28:43;;;;;;;4.35;0.63;;;;;;;24.77;51.29;101255.34;8391298;27;20767;-63
2022/06/12 09:33:08;;;;;;;5.00;0.60;;;;;;;24.87;50.66;101257.69;8381654;28;20041;-63
2022/06/12 09:38:33;;;;;;;2.85;0.70;;;;;;;24.68;49.88;101253.03;8354812;28;20056;-63
2022/06/12 09:42:07;;;;;;;5.00;0.60;;;;;;;25.10;49.52;101249.78;8346004;28;20040;-63
2022/06/12 09:50:53;;;;;;;5.47;0.90;;;;;;;25.26;50.84;101254.81;8298391;28;20397;-62
2022/06/12 09:55:02;;;;;;;2.50;0.95;;;;;;;25.13;48.22;101246.56;8269855;28;20053;-62
2022/06/12 09:59:12;;;;;;;4.25;1.00;;;;;;;25.75;47.59;101248.66;8275005;28;20052;-62
2022/06/12 10:03:39;;;;;;;3.33;1.02;;;;;;;27.11;49.47;101243.09;8274931;28;20039;-62
2022/06/12 10:07:48;;;;;;;3.95;0.98;;;;;;;29.19;42.60;101233.50;8279335;28;20107;-62
2022/06/12 10:11:55;;;;;;;5.90;0.80;;;;;;;30.20;42.22;101238.16;8278006;28;20042;-62
2022/06/12 10:16:02;;;;;;;7.85;0.93;;;;;;;31.24;40.47;101239.28;8279155;28;20037;-61
2022/06/12 10:20:11;;;;;;;6.63;1.27;;;;;;;31.45;41.57;101241.28;8276550;28;20419;-62
2022/06/12 10:24:12;;;;;;;5.72;1.40;;;;;;;32.60;41.07;101250.97;8279403;28;20030;-62
2022/06/12 10:32:54;;;;;;;7.05;1.30;;;;;;;32.13;40.40;101244.31;8385331;27;20387;-62
2022/06/12 10:36:56;;;;;;;4.35;0.98;;;;;;;31.36;39.83;101237.22;8377374;27;20048;-62
2022/06/12 10:41:01;;;;;;;6.03;1.27;;;;;;;30.61;42.15;101219.31;8366124;28;20098;-62
2022/06/12 10:45:02;;;;;;;8.30;1.65;;;;;;;32.27;42.14;101223.19;8366288;28;20036;-62
2022/06/12 10:49:16;;;;;;;8.25;1.48;;;;;;;32.38;42.60;101219.41;8366380;27;20043;-62
2022/06/12 10:53:21;;;;;;;6.10;1.00;;;;;;;32.59;40.88;101221.25;8383548;27;20043;-62
2022/06/12 10:57:41;;;;;;;6.57;1.15;;;;;;;33.13;41.53;101219.97;8373941;28;20028;-62
2022/06/12 11:02:14;;;;;;;6.57;1.45;;;;;;;33.28;40.03;101208.84;8389813;28;20044;-62
2022/06/12 11:06:21;;;;;;;6.75;1.40;;;;;;;33.05;39.92;101206.47;8390744;28;20059;-62
2022/06/12 11:11:03;;;;;;;7.30;1.25;;;;;;;32.92;38.19;101211.72;8379626;28;20047;-63
2022/06/12 11:15:31;;;;;;;7.32;1.25;;;;;;;33.65;38.95;101208.72;8381763;28;20112;-62
2022/06/12 11:20:13;;;;;;;8.55;1.92;;;;;;;32.58;37.64;101202.78;8380690;28;20517;-62
2022/06/12 11:24:22;;;;;;;6.63;1.83;;;;;;;32.18;39.65;101213.59;8388605;28;20047;-62
2022/06/12 11:28:40;;;;;;;9.27;1.25;;;;;;;33.36;37.07;101211.09;8385532;28;20169;-62
2022/06/12 11:33:09;;;;;;;7.85;1.55;;;;;;;33.71;40.49;101214.09;8392338;28;20049;-62
2022/06/12 11:37:50;;;;;;;7.38;0.90;;;;;;;33.57;38.19;101206.47;8396624;28;20124;-62
2022/06/12 11:42:30;;;;;;;6.13;1.35;;;;;;;32.86;38.53;101196.84;8362272;28;20064;-63
2022/06/12 11:46:43;;;;;;;5.68;1.55;;;;;;;32.97;38.69;101184.59;8353865;28;20045;-63
2022/06/12 11:50:56;;;;;;;6.63;1.23;;;;;;;31.71;40.91;101184.56;8360104;28;20029;-63
2022/06/12 11:55:36;;;;;;;6.77;1.20;;;;;;;32.35;40.16;101183.53;8363180;28;20045;-62
2022/06/12 12:00:01;;;;;;;5.78;1.40;;;;;;;33.50;37.14;101173.06;8348207;28;20378;-62
2022/06/12 12:04:41;;;;;;;8.82;1.75;;;;;;;33.69;38.43;101164.97;8360788;28;20037;-63
2022/06/12 12:09:02;;;;;;;5.93;1.35;;;;;;;32.08;38.41;101168.72;8366664;28;20413;-63
2022/06/12 12:13:09;;;;;;;10.43;1.20;;;;;;;30.24;42.88;101155.63;8359630;28;20045;-63
2022/06/12 12:17:20;;;;;;;6.65;1.48;;;;;;;28.27;46.95;101161.97;8400674;28;20120;-62
2022/06/12 12:21:31;;;;;;;6.88;1.60;;;;;;;26.74;48.94;101161.72;8357930;28;20405;-64
2022/06/12 12:25:41;;;;;;;7.32;1.60;;;;;;;26.14;48.33;101146.72;8363050;28;20039;-63
2022/06/12 12:29:42;;;;;;;6.30;1.55;;;;;;;25.65;50.62;101154.97;8383382;28;20045;-63
2022/06/12 12:33:46;;;;;;;5.47;1.30;;;;;;;25.32;51.16;101151.53;8382759;28;20524;-63
2022/06/12 12:42:21;;;;;;;9.63;1.88;;;;;;;25.00;52.24;101144.19;8362797;28;20660;-63
2022/06/12 12:46:24;;;;;;;6.18;1.05;;;;;;;25.87;51.97;101142.44;8368375;28;20059;-63
2022/06/12 12:50:24;;;;;;;5.65;1.52;;;;;;;25.90;50.53;101144.78;8355182;28;20558;-63
2022/06/12 12:54:25;;;;;;;8.75;1.77;;;;;;;26.08;50.20;101144.88;8384535;28;20374;-63
2022/06/12 12:58:26;;;;;;;6.87;1.60;;;;;;;25.37;50.27;101129.56;8384621;28;20037;-63
2022/06/12 13:02:31;;;;;;;9.60;1.63;;;;;;;26.12;53.98;101132.25;8385402;28;20263;-63
2022/06/12 13:06:48;;;;;;;6.10;1.33;;;;;;;25.38;48.61;101125.75;8384440;28;20082;-63
2022/06/12 13:28:35;;;;;;;7.95;1.50;;;;;;;26.18;47.39;101103.59;8269522;28;20361;-62
2022/06/12 13:32:36;;;;;;;5.63;1.20;;;;;;;26.11;51.83;101097.28;8233450;28;20155;-62
2022/06/12 13:36:41;;;;;;;6.50;1.27;;;;;;;25.69;48.81;101099.94;8259756;28;20054;-62
2022/06/12 13:40:43;;;;;;;11.63;1.67;;;;;;;25.31;51.86;101088.88;8247579;28;20121;-62
2022/06/12 13:44:46;;;;;;;10.13;1.65;;;;;;;25.45;52.57;101085.00;8237898;28;20054;-62
2022/06/12 13:48:46;;;;;;;6.22;1.58;;;;;;;25.97;52.87;101079.03;8225683;28;20074;-62
2022/06/12 13:53:14;;;;;;;7.80;2.42;;;;;;;26.65;54.54;101077.09;8239665;28;20137;-61
2022/06/12 13:57:36;;;;;;;9.43;2.17;;;;;;;25.96;52.51;101079.25;8273681;28;20039;-63
2022/06/12 14:01:36;;;;;;;6.78;1.70;;;;;;;25.02;52.53;101067.34;8263315;28;20038;-61
2022/06/12 14:05:51;;;;;;;12.98;2.17;;;;;;;25.78;55.89;101060.66;8255617;28;20073;-63
2022/06/12 14:09:56;;;;;;;7.50;1.50;;;;;;;25.59;51.15;101052.53;8272158;28;20144;-64
2022/06/12 14:13:58;;;;;;;8.40;1.80;;;;;;;25.67;53.50;101049.47;8256658;28;20042;-64
2022/06/12 14:18:00;;;;;;;9.60;1.65;;;;;;;25.46;53.18;101047.91;8267643;28;20060;-64
2022/06/12 14:22:18;;;;;;;6.72;1.33;;;;;;;25.65;50.84;101041.41;8270783;28;20053;-64
2022/06/12 14:30:39;;;;;;;4.70;1.20;;;;;;;25.63;49.62;101043.53;8379685;27;20964;-62
2022/06/12 14:34:43;;;;;;;6.03;1.60;;;;;;;25.55;52.42;101038.25;8375014;27;20037;-63
2022/06/12 14:38:43;;;;;;;8.05;1.67;;;;;;;25.51;51.83;101031.47;8374580;28;20048;-63
2022/06/12 14:42:43;;;;;;;9.60;1.15;;;;;;;25.51;51.70;101034.25;8401820;27;20044;-63
2022/06/12 14:46:45;;;;;;;6.60;1.80;;;;;;;25.81;51.77;101035.28;8402114;27;20036;-63
2022/06/12 14:50:47;;;;;;;12.23;2.60;;;;;;;25.57;49.17;101030.59;8396089;27;20295;-63
2022/06/12 14:54:47;;;;;;;5.95;1.58;;;;;;;25.39;50.71;101024.97;8382638;27;20444;-63
2022/06/12 14:58:48;;;;;;;8.37;1.70;;;;;;;25.14;50.09;101015.75;8390823;27;20146;-63
2022/06/12 15:02:48;;;;;;;8.57;1.60;;;;;;;25.21;52.11;101016.56;8374098;27;20357;-62
2022/06/12 15:06:48;;;;;;;8.18;1.80;;;;;;;25.16;50.82;101008.09;8364726;28;20044;-63
2022/06/12 15:10:49;;;;;;;11.15;1.80;;;;;;;25.12;53.29;101001.28;8366829;28;20075;-63
2022/06/12 15:14:49;;;;;;;8.68;1.65;;;;;;;25.41;52.69;101017.31;8369266;28;20064;-63
2022/06/12 15:18:50;;;;;;;6.77;1.60;;;;;;;25.30;50.40;101006.91;8344412;28;20045;-63
2022/06/12 15:22:52;;;;;;;11.75;2.03;;;;;;;25.18;49.54;101000.38;8351313;28;20037;-63
2022/06/12 15:31:17;;;;;;;6.35;1.88;;;;;;;24.70;51.11;100999.22;8339826;28;20425;-63
2022/06/12 15:35:18;;;;;;;6.38;1.30;;;;;;;24.88;51.69;100989.09;8396841;28;20127;-63
2022/06/12 15:39:18;;;;;;;7.85;1.67;;;;;;;25.16;53.50;100991.47;8395354;28;20298;-63
2022/06/12 15:43:20;;;;;;;7.33;1.67;;;;;;;25.36;51.19;100992.19;8371075;28;20127;-63
2022/06/12 15:47:20;;;;;;;5.00;1.30;;;;;;;25.23;52.05;100981.19;8365416;28;20461;-63
2022/06/12 15:51:21;;;;;;;8.13;1.55;;;;;;;25.08;51.23;100971.50;8342285;28;20048;-63
2022/06/12 15:55:21;;;;;;;10.10;2.25;;;;;;;25.02;51.19;100967.72;8343961;28;20195;-63
2022/06/12 15:59:25;;;;;;;9.65;4.85;;;;;;;25.14;51.56;100965.94;8345114;28;20040;-63
2022/06/12 16:03:26;;;;;;;12.00;1.83;;;;;;;25.01;51.11;100974.34;8346949;28;20041;-63
2022/06/12 16:07:26;;;;;;;3.42;1.40;;;;;;;24.74;52.35;100978.34;8338247;28;20276;-63
2022/06/12 16:11:27;;;;;;;7.00;1.80;;;;;;;24.71;51.59;100964.94;8347444;28;20413;-63
2022/06/12 16:15:28;;;;;;;7.80;1.27;;;;;;;24.99;50.86;100962.63;8336009;28;20072;-63
2022/06/12 16:19:28;;;;;;;5.45;1.27;;;;;;;24.93;51.83;100963.53;8346362;28;20044;-63
2022/06/12 16:23:29;;;;;;;6.27;1.43;;;;;;;24.78;50.04;100965.75;8355125;28;20029;-63
2022/06/12 16:27:30;;;;;;;5.40;2.03;;;;;;;24.71;50.39;100967.72;8353616;28;20045;-63
2022/06/12 16:31:30;;;;;;;7.97;1.57;;;;;;;24.70;50.95;100944.72;8350641;28;20044;-63
2022/06/12 16:35:30;;;;;;;9.80;1.67;;;;;;;24.78;52.03;100960.22;8362987;28;20041;-63
2022/06/12 16:39:31;;;;;;;7.87;2.77;;;;;;;24.68;50.87;100959.84;8366963;28;20032;-63
2022/06/12 16:43:31;;;;;;;5.63;1.80;;;;;;;24.42;52.25;100954.41;8368370;28;20872;-63
2022/06/12 16:47:32;;;;;;;9.73;2.97;;;;;;;24.26;50.53;100952.16;8381110;28;20275;-63
2022/06/12 16:51:33;;;;;;;6.18;1.70;;;;;;;24.41;52.37;100955.50;8357876;28;20041;-63
2022/06/12 16:55:33;;;;;;;6.63;1.30;;;;;;;24.30;52.74;100956.16;8376998;28;20038;-63
2022/06/12 16:59:35;;;;;;;7.05;1.65;;;;;;;24.11;51.56;100940.50;8397740;28;20044;-63
2022/06/12 17:03:35;;;;;;;7.18;1.52;;;;;;;24.11;51.84;100935.00;8379504;28;20124;-63
2022/06/12 17:07:40;;;;;;;5.93;1.42;;;;;;;23.84;51.19;100949.91;8370347;28;20032;-63
2022/06/12 17:11:40;;;;;;;4.45;1.35;;;;;;;23.85;51.39;100943.34;8369886;28;20040;-63
2022/06/12 17:15:43;;;;;;;5.50;1.10;;;;;;;23.93;54.69;100934.78;8355045;28;20127;-63
2022/06/12 17:20:45;;;;;;;6.57;1.50;;;;;;;24.03;53.43;100940.78;8344833;28;20345;-63
2022/06/12 17:24:05;;;;;;;9.15;1.42;;;;;;;23.82;51.80;100943.78;8317287;28;20457;-63
2022/06/12 17:28:06;;;;;;;5.45;1.42;;;;;;;23.54;55.01;100945.94;8332556;28;20048;-63
2022/06/12 17:32:07;;;;;;;4.32;1.38;;;;;;;23.59;54.06;100943.38;8350942;28;20052;-63
2022/06/12 17:36:08;;;;;;;8.25;1.40;;;;;;;23.80;53.96;100946.75;8295429;28;20321;-63
2022/06/12 17:40:09;;;;;;;5.85;1.80;;;;;;;23.65;53.51;100940.63;8330535;28;20044;-63
2022/06/12 17:44:09;;;;;;;6.90;1.65;;;;;;;23.60;54.47;100953.38;8342185;28;20047;-63
2022/06/12 17:48:12;;;;;;;7.17;1.67;;;;;;;23.41;53.59;100941.28;8328361;28;20101;-63
2022/06/12 17:52:13;;;;;;;5.93;1.48;;;;;;;23.30;54.25;100946.59;8334532;28;20286;-63
2022/06/12 17:56:13;;;;;;;7.68;2.20;;;;;;;23.28;54.49;100946.81;8347221;28;20038;-63
2022/06/12 18:00:17;;;;;;;5.47;1.75;;;;;;;23.21;54.27;100944.00;8331525;28;20123;-63
2022/06/12 18:04:17;;;;;;;5.87;1.63;;;;;;;23.17;54.46;100944.63;8318617;28;20037;-63
2022/06/12 18:08:17;;;;;;;5.45;1.25;;;;;;;23.16;54.08;100946.56;8339630;28;20040;-63
2022/06/12 18:12:18;;;;;;;8.82;1.77;;;;;;;23.05;54.46;100938.91;8362146;28;20371;-63
2022/06/12 18:20:40;;;;;;;5.72;2.00;;;;;;;22.59;55.95;100951.75;8305769;28;20280;-63
2022/06/12 18:24:40;;;;;;;7.85;1.73;;;;;;;22.40;56.52;100949.78;8325034;28;20520;-63
2022/06/12 18:28:40;;;;;;;7.13;1.57;;;;;;;22.22;57.24;100954.13;8332521;28;20049;-63
2022/06/12 18:32:41;;;;;;;6.97;1.40;;;;;;;22.09;57.58;100943.94;8301398;28;20465;-63
2022/06/12 18:36:42;;;;;;;6.05;1.70;;;;;;;21.98;57.86;100938.97;8324021;28;20041;-63
2022/06/12 18:40:44;;;;;;;6.40;2.33;;;;;;;21.91;57.89;100938.09;8343919;28;20465;-63
2022/06/12 18:44:44;;;;;;;7.75;1.33;;;;;;;21.79;58.93;100939.72;8343423;28;20047;-63
2022/06/12 18:48:45;;;;;;;8.30;1.50;;;;;;;21.74;58.94;100942.22;8349516;28;20045;-63
2022/06/12 18:52:46;;;;;;;8.07;1.77;;;;;;;21.64;59.20;100944.47;8349576;28;20334;-63
2022/06/12 18:56:46;;;;;;;5.22;1.60;;;;;;;21.53;59.53;100945.00;8349198;28;20357;-63
2022/06/12 19:00:46;;;;;;;8.98;1.85;;;;;;;21.43;60.78;100950.03;8347922;28;20191;-63
2022/06/12 19:04:47;;;;;;;6.70;1.97;;;;;;;21.22;62.08;100947.31;8335054;28;20054;-63
2022/06/12 19:08:48;;;;;;;7.63;2.03;;;;;;;21.12;63.17;100953.19;8334855;28;20292;-63
2022/06/12 19:12:48;;;;;;;7.32;1.95;;;;;;;20.95;64.10;100948.16;8324411;28;20453;-63
2022/06/12 19:16:51;;;;;;;7.60;2.03;;;;;;;20.76;65.09;100941.38;8341287;28;20072;-63
2022/06/12 19:20:52;;;;;;;7.45;1.80;;;;;;;20.80;65.62;100952.84;8338214;28;20291;-63
2022/06/12 19:24:53;;;;;;;5.47;1.70;;;;;;;20.64;66.06;100958.56;8350319;28;20107;-63
2022/06/12 19:28:53;;;;;;;8.48;1.77;;;;;;;20.82;65.44;100961.72;8346070;28;20068;-63
2022/06/12 19:32:54;;;;;;;6.50;1.52;;;;;;;20.66;65.95;100973.81;8345323;28;20213;-62
2022/06/12 19:36:54;;;;;;;11.73;2.22;;;;;;;20.42;65.06;100976.06;8347662;28;20041;-63
2022/06/12 19:40:56;;;;;;;7.03;1.60;;;;;;;20.25;64.77;100985.56;8344667;28;20076;-63
2022/06/12 19:44:56;;;;;;;3.63;1.08;;;;;;;20.10;64.85;100987.44;8345713;28;20290;-63
2022/06/12 19:48:57;;;;;;;5.53;1.77;;;;;;;19.97;65.53;100993.59;8330498;28;20049;-63
2022/06/12 19:52:57;;;;;;;4.93;1.23;;;;;;;19.91;64.89;101004.50;8350503;28;20112;-63
2022/06/12 19:56:58;;;;;;;5.30;1.48;;;;;;;19.81;65.18;101003.91;8354277;28;20025;-63
2022/06/12 20:01:04;;;;;;;6.73;1.83;;;;;;;19.72;65.52;101016.88;8344705;28;20072;-63
2022/06/12 20:09:25;;;;;;;5.22;1.17;;;;;;;19.43;67.85;101016.81;8355174;28;20041;-63
2022/06/12 20:13:26;;;;;;;3.20;1.20;;;;;;;19.17;69.40;101019.06;8356354;28;20045;-63
2022/06/12 20:17:27;;;;;;;5.15;1.30;;;;;;;19.12;69.15;101014.13;8354745;28;20326;-63
2022/06/12 20:21:28;;;;;;;8.13;1.40;;;;;;;19.07;69.08;101022.06;8332041;28;20032;-63
2022/06/12 20:25:28;;;;;;;7.65;1.27;;;;;;;19.07;69.38;101013.84;8348982;28;20033;-63